Time;durP1;ratioP1;P1;durP2;ratioP2;P2;SDS_P1;SDS_P2;PMS_P1;PMS_P2;Temp;Humidity;BMP_temperature;BMP_pressure;BME280_temperature;BME280_humidity;BME280_pressure;Samples;Min_cycle;Max_cycle;Signal;HPM_P1;HPM_P2
2024/04/15 00:01:01;;;;;;;2.25;1.80;;;18.30;62.80;;;;;;5353344;26;20469;-89
2024/04/15 00:03:27;;;;;;;3.20;2.45;;;18.30;62.10;;;;;;5320562;26;20478;-90
2024/04/15 00:05:53;;;;;;;3.03;2.38;;;18.30;62.10;;;;;;5353855;26;20007;-89
2024/04/15 00:08:19;;;;;;;2.90;2.20;;;18.30;62.10;;;;;;5354010;26;19997;-90
2024/04/15 00:10:45;;;;;;;2.85;2.40;;;18.30;62.80;;;;;;5356755;26;20427;-90
2024/04/15 00:13:11;;;;;;;1.70;1.52;;;18.40;62.90;;;;;;5352847;26;20042;-89
2024/04/15 00:15:36;;;;;;;4.32;2.78;;;18.40;61.80;;;;;;5352681;26;20005;-90
2024/04/15 00:18:02;;;;;;;3.75;1.98;;;18.30;61.80;;;;;;5353137;26;20005;-90
2024/04/15 00:20:29;;;;;;;3.30;2.40;;;18.40;62.40;;;;;;5353942;26;19997;-89
2024/04/15 00:22:55;;;;;;;2.70;1.73;;;18.40;63.80;;;;;;5337294;26;20012;-89
2024/04/15 00:25:22;;;;;;;2.55;1.70;;;18.30;65.10;;;;;;5339068;26;20070;-89
2024/04/15 00:27:47;;;;;;;3.08;2.10;;;18.30;64.80;;;;;;5353123;26;20032;-89
2024/04/15 00:30:13;;;;;;;3.70;1.85;;;18.20;63.50;;;;;;5373043;26;20077;-89
2024/04/15 00:32:39;;;;;;;2.70;2.13;;;18.20;65.30;;;;;;5358719;26;20001;-90
2024/04/15 00:35:05;;;;;;;2.80;2.60;;;18.10;66.70;;;;;;5354169;26;20001;-91
2024/04/15 00:37:30;;;;;;;3.25;2.20;;;18.00;66.30;;;;;;5354196;26;20019;-90
2024/04/15 00:39:57;;;;;;;3.08;2.38;;;17.90;67.40;;;;;;5366504;26;20000;-90
2024/04/15 00:42:23;;;;;;;3.05;1.83;;;17.90;68.70;;;;;;5378453;26;20000;-89
2024/04/15 00:44:50;;;;;;;2.92;1.80;;;17.90;69.00;;;;;;5352977;26;20005;-88
2024/04/15 00:47:16;;;;;;;2.35;2.00;;;17.80;69.10;;;;;;5352681;26;20019;-89
2024/04/15 00:49:43;;;;;;;4.03;3.00;;;17.80;70.00;;;;;;5352564;26;20032;-89
2024/04/15 00:52:09;;;;;;;5.32;2.45;;;17.70;70.10;;;;;;5352932;26;20016;-89
2024/04/15 00:54:36;;;;;;;3.05;1.90;;;17.70;69.80;;;;;;5351334;26;20071;-89
2024/04/15 00:57:03;;;;;;;3.17;1.70;;;17.70;69.50;;;;;;5352441;26;20009;-90
2024/04/15 00:59:29;;;;;;;6.68;1.92;;;17.70;68.30;;;;;;5352608;26;20108;-89
2024/04/15 01:01:56;;;;;;;2.53;2.03;;;17.50;68.80;;;;;;5351822;26;20032;-90
2024/04/15 01:04:22;;;;;;;2.65;1.45;;;17.40;68.90;;;;;;5351986;26;20023;-89
2024/04/15 01:06:48;;;;;;;3.08;2.78;;;17.30;70.70;;;;;;5353054;26;19996;-89
2024/04/15 01:09:14;;;;;;;2.42;1.77;;;17.20;70.40;;;;;;5351779;26;20001;-89
2024/04/15 01:11:40;;;;;;;3.10;1.77;;;17.10;69.30;;;;;;5376203;26;20005;-90
2024/04/15 01:14:05;;;;;;;4.65;3.63;;;17.10;66.80;;;;;;5353838;26;20001;-90
2024/04/15 01:16:38;;;;;;;4.00;1.63;;;17.00;66.60;;;;;;5352278;26;20012;-89
2024/04/15 01:19:04;;;;;;;3.80;2.13;;;17.10;66.50;;;;;;5308204;26;20002;-89
2024/04/15 01:21:30;;;;;;;2.90;1.58;;;17.10;67.90;;;;;;5350574;26;20011;-91
2024/04/15 01:23:58;;;;;;;3.60;2.25;;;17.10;68.00;;;;;;5353947;26;20479;-90
2024/04/15 01:26:24;;;;;;;3.65;2.30;;;17.10;69.20;;;;;;5352211;26;20005;-89
2024/04/15 01:28:50;;;;;;;3.10;2.70;;;17.10;69.90;;;;;;5352591;26;20074;-89
2024/04/15 01:31:15;;;;;;;3.92;3.40;;;17.10;70.50;;;;;;5351735;26;20516;-89
2024/04/15 01:33:41;;;;;;;3.50;2.60;;;16.90;70.50;;;;;;5352192;26;20001;-88
2024/04/15 01:36:07;;;;;;;3.63;1.90;;;17.00;70.50;;;;;;5322755;26;19997;-89
2024/04/15 01:38:33;;;;;;;3.88;2.13;;;16.90;70.00;;;;;;5322407;26;20056;-89
2024/04/15 01:40:58;;;;;;;3.40;2.58;;;16.80;71.20;;;;;;5358900;26;20066;-88
2024/04/15 01:43:24;;;;;;;3.65;2.50;;;16.80;71.80;;;;;;5352450;26;20009;-90
2024/04/15 01:45:50;;;;;;;3.47;2.20;;;16.80;71.80;;;;;;5365918;26;20029;-92
2024/04/15 01:48:16;;;;;;;3.28;2.97;;;16.70;71.80;;;;;;5336439;26;19997;-90
2024/04/15 01:50:41;;;;;;;4.70;2.10;;;16.60;71.00;;;;;;5352389;26;19993;-89
2024/04/15 01:53:11;;;;;;;4.10;3.33;;;16.50;71.10;;;;;;5351392;26;20004;-90
2024/04/15 01:55:37;;;;;;;4.72;2.85;;;16.60;72.00;;;;;;5352014;26;20005;-89
2024/04/15 01:58:03;;;;;;;3.53;2.85;;;16.60;74.50;;;;;;5352112;26;20009;-89
2024/04/15 02:00:29;;;;;;;4.53;2.83;;;16.60;72.60;;;;;;5321320;26;20012;-90
2024/04/15 02:02:55;;;;;;;3.28;2.72;;;16.50;73.20;;;;;;5350849;26;19993;-89
2024/04/15 02:05:20;;;;;;;2.80;2.60;;;16.60;75.00;;;;;;5353502;26;20024;-89
2024/04/15 02:07:48;;;;;;;9.30;4.55;;;16.60;76.30;;;;;;5354838;26;20001;-89
2024/04/15 02:10:14;;;;;;;2.70;2.50;;;16.60;77.90;;;;;;5354726;26;20001;-89
2024/04/15 02:12:40;;;;;;;4.63;1.83;;;16.60;79.50;;;;;;5352413;26;20402;-89
2024/04/15 02:15:06;;;;;;;4.70;2.25;;;16.40;83.20;;;;;;5366088;26;20004;-89
2024/04/15 02:17:32;;;;;;;3.38;2.83;;;16.40;86.50;;;;;;5353941;26;20029;-92
2024/04/15 02:19:57;;;;;;;4.15;2.83;;;16.50;87.00;;;;;;5349466;26;20016;-90
2024/04/15 02:22:23;;;;;;;2.97;2.47;;;16.40;86.20;;;;;;5314329;27;19998;-89
2024/04/15 02:24:49;;;;;;;2.72;2.00;;;16.30;84.90;;;;;;5334895;26;20340;-90
2024/04/15 02:27:14;;;;;;;4.05;3.75;;;16.10;83.70;;;;;;5363189;26;20446;-90
2024/04/15 02:29:40;;;;;;;4.53;3.00;;;16.00;85.40;;;;;;5353511;26;20008;-90
2024/04/15 02:32:06;;;;;;;5.70;3.90;;;15.90;87.60;;;;;;5353365;26;19997;-90
2024/04/15 02:34:32;;;;;;;3.13;2.83;;;15.80;86.70;;;;;;5353237;26;19997;-89
2024/04/15 02:36:57;;;;;;;5.22;3.03;;;15.70;86.90;;;;;;5353653;26;20075;-89
2024/04/15 02:39:23;;;;;;;3.42;3.13;;;15.70;87.60;;;;;;5359045;26;20011;-90
2024/04/15 02:41:49;;;;;;;3.75;3.03;;;15.60;88.20;;;;;;5353674;26;19997;-89
2024/04/15 02:44:14;;;;;;;5.32;2.83;;;15.40;87.80;;;;;;5334762;26;20039;-90
2024/04/15 02:46:40;;;;;;;4.43;4.03;;;15.40;87.30;;;;;;5354512;26;20008;-90
2024/04/15 02:49:06;;;;;;;4.80;3.08;;;15.30;87.60;;;;;;5355166;26;20005;-89
2024/04/15 02:51:34;;;;;;;3.45;3.15;;;15.10;89.50;;;;;;5354095;26;20001;-90
2024/04/15 02:54:00;;;;;;;4.28;3.03;;;15.10;88.50;;;;;;5323291;26;20075;-89
2024/04/15 02:56:26;;;;;;;5.03;3.45;;;15.00;87.70;;;;;;5353297;26;20008;-89
2024/04/15 02:58:51;;;;;;;5.32;3.25;;;15.00;90.70;;;;;;5354276;26;20005;-89
2024/04/15 03:01:17;;;;;;;5.97;2.97;;;15.00;91.30;;;;;;5352919;26;20004;-90
2024/04/15 03:03:45;;;;;;;3.95;2.53;;;15.10;91.10;;;;;;5372300;26;19992;-89
2024/04/15 03:06:11;;;;;;;3.75;3.28;;;15.00;91.10;;;;;;5353713;26;20080;-89
2024/04/15 03:08:36;;;;;;;4.07;3.00;;;15.00;91.60;;;;;;5353004;26;20012;-90
2024/04/15 03:11:09;;;;;;;4.82;2.70;;;15.00;90.90;;;;;;5353204;26;20008;-89
2024/04/15 03:13:35;;;;;;;3.33;3.03;;;15.00;89.90;;;;;;5315737;27;20005;-90
2024/04/15 03:16:01;;;;;;;5.97;3.13;;;15.10;88.70;;;;;;5350463;26;20012;-90
2024/04/15 03:18:27;;;;;;;3.60;3.17;;;15.00;90.50;;;;;;5354226;26;20021;-90
2024/04/15 03:20:52;;;;;;;3.53;2.58;;;15.00;87.70;;;;;;5322796;26;19997;-91
2024/04/15 03:23:18;;;;;;;3.47;2.78;;;15.00;87.50;;;;;;5345773;26;20001;-92
2024/04/15 03:25:44;;;;;;;5.95;3.22;;;15.00;88.50;;;;;;5358820;26;20059;-90
2024/04/15 03:28:09;;;;;;;7.13;1.83;;;14.90;88.30;;;;;;5352749;26;20386;-91
2024/04/15 03:30:35;;;;;;;4.63;3.30;;;14.90;91.10;;;;;;5326775;26;20000;-90
2024/04/15 03:33:01;;;;;;;5.53;3.42;;;15.00;88.10;;;;;;5349617;26;20455;-89
2024/04/15 03:35:26;;;;;;;5.78;2.95;;;14.90;88.00;;;;;;5346045;26;20016;-90
2024/04/15 03:37:53;;;;;;;4.55;3.30;;;14.80;88.30;;;;;;5347915;26;20446;-90
2024/04/15 03:40:18;;;;;;;6.90;4.05;;;14.70;88.90;;;;;;5353743;26;20007;-90
2024/04/15 03:42:44;;;;;;;4.43;3.30;;;14.70;88.60;;;;;;5353467;26;19993;-88
2024/04/15 03:45:09;;;;;;;5.13;2.75;;;14.60;88.30;;;;;;5353425;26;20033;-90
2024/04/15 03:47:35;;;;;;;4.05;3.53;;;14.60;88.40;;;;;;5353515;26;20023;-90
2024/04/15 03:50:01;;;;;;;5.47;2.97;;;14.60;88.20;;;;;;5354431;26;20007;-93
2024/04/15 03:52:26;;;;;;;4.72;3.00;;;14.60;85.70;;;;;;5323594;26;20067;-92
2024/04/15 03:54:52;;;;;;;5.75;1.83;;;14.50;85.20;;;;;;5339458;26;20410;-91
2024/04/15 03:57:18;;;;;;;4.28;2.53;;;14.40;87.30;;;;;;5353681;26;20441;-91
2024/04/15 03:59:44;;;;;;;3.78;3.08;;;14.40;87.30;;;;;;5354944;26;19993;-91
2024/04/15 04:02:10;;;;;;;4.35;2.72;;;14.30;85.80;;;;;;5316755;26;20008;-91
2024/04/15 04:04:36;;;;;;;3.78;3.42;;;14.20;85.80;;;;;;5342545;26;20002;-91
2024/04/15 04:07:01;;;;;;;4.53;3.15;;;14.10;88.20;;;;;;5331893;26;20006;-90
2024/04/15 04:09:27;;;;;;;3.45;3.15;;;14.20;88.40;;;;;;5350259;26;20000;-91
2024/04/15 04:11:54;;;;;;;6.00;3.95;;;14.10;88.70;;;;;;5357153;26;20006;-92
2024/04/15 04:14:20;;;;;;;5.22;3.15;;;14.20;87.80;;;;;;5360863;26;20011;-89
2024/04/15 04:16:46;;;;;;;5.93;2.65;;;14.10;87.30;;;;;;5346552;26;20004;-91
2024/04/15 04:19:12;;;;;;;4.32;3.78;;;14.00;89.40;;;;;;5349592;26;20008;-91
2024/04/15 04:21:37;;;;;;;4.40;3.33;;;14.00;90.40;;;;;;5353646;26;20004;-90
2024/04/15 04:24:04;;;;;;;4.05;2.80;;;13.90;90.40;;;;;;5353726;26;20600;-91
2024/04/15 04:26:29;;;;;;;5.22;4.13;;;13.90;91.80;;;;;;5323062;26;19996;-91
2024/04/15 04:28:56;;;;;;;6.45;3.67;;;13.90;92.40;;;;;;5351430;26;20016;-91
2024/04/15 04:31:22;;;;;;;5.38;3.97;;;13.90;92.80;;;;;;5300014;27;20464;-93
2024/04/15 04:33:48;;;;;;;4.20;3.70;;;13.70;93.50;;;;;;5346372;26;20012;-91
2024/04/15 04:36:17;;;;;;;6.40;3.80;;;13.80;95.50;;;;;;5352615;26;20532;-91
2024/04/15 04:38:43;;;;;;;4.10;2.20;;;13.70;95.60;;;;;;5352011;26;20426;-90
2024/04/15 04:41:09;;;;;;;6.18;4.57;;;13.70;95.60;;;;;;5352076;26;20004;-91
2024/04/15 04:43:34;;;;;;;10.70;3.55;;;13.70;96.30;;;;;;5330447;26;19996;-91
2024/04/15 04:46:11;;;;;;;5.68;3.70;;;13.70;97.40;;;;;;5352553;26;20008;-91
2024/04/15 04:48:36;;;;;;;5.82;4.38;;;13.60;96.80;;;;;;5351525;26;20013;-92
2024/04/15 04:51:09;;;;;;;3.60;2.33;;;13.70;96.70;;;;;;5320095;26;20427;-91
2024/04/15 04:53:35;;;;;;;5.03;3.75;;;13.60;96.40;;;;;;5319251;26;20019;-92
2024/04/15 04:56:11;;;;;;;6.47;3.83;;;13.60;98.00;;;;;;5320597;26;20005;-92
2024/04/15 04:59:06;;;;;;;5.43;3.97;;;13.60;97.90;;;;;;5320447;26;20071;-94
2024/04/15 05:01:42;;;;;;;7.00;4.43;;;13.60;99.00;;;;;;5357359;26;20001;-93
2024/04/15 05:04:10;;;;;;;4.93;4.43;;;13.80;98.20;;;;;;5320322;26;19997;-91
2024/04/15 05:06:37;;;;;;;6.05;3.97;;;13.60;98.40;;;;;;5349767;26;20016;-91
2024/04/15 05:09:03;;;;;;;6.35;3.28;;;13.60;99.00;;;;;;5314549;26;20370;-91
2024/04/15 05:11:28;;;;;;;3.83;3.50;;;13.70;98.70;;;;;;5350092;26;20016;-90
2024/04/15 05:13:57;;;;;;;8.10;4.97;;;13.70;98.90;;;;;;5349906;26;20015;-91
2024/04/15 05:16:24;;;;;;;6.78;4.57;;;13.80;99.90;;;;;;5343410;26;20046;-90
2024/04/15 05:18:51;;;;;;;7.18;4.25;;;13.80;99.50;;;;;;5345333;26;20040;-92
2024/04/15 05:21:24;;;;;;;4.95;4.47;;;13.80;97.50;;;;;;5353056;26;20016;-91
2024/04/15 05:23:50;;;;;;;6.55;4.68;;;13.90;97.80;;;;;;5322158;26;20000;-92
2024/04/15 05:26:16;;;;;;;5.10;4.07;;;13.90;98.50;;;;;;5322040;26;20012;-91
2024/04/15 05:28:45;;;;;;;8.48;4.53;;;13.90;98.60;;;;;;5345627;26;20001;-89
2024/04/15 05:31:10;;;;;;;6.35;4.03;;;14.00;98.50;;;;;;5349934;26;20001;-92
2024/04/15 05:33:36;;;;;;;7.25;4.47;;;14.00;97.80;;;;;;5350946;26;19997;-92
2024/04/15 05:36:02;;;;;;;7.43;4.15;;;14.00;97.90;;;;;;5345829;26;20016;-92
2024/04/15 05:38:30;;;;;;;6.70;4.10;;;14.00;97.80;;;;;;5350206;26;20134;-93
2024/04/15 05:40:57;;;;;;;5.88;3.70;;;14.00;97.50;;;;;;5325075;26;20016;-92
2024/04/15 05:43:22;;;;;;;7.65;4.57;;;14.10;97.20;;;;;;5320029;26;20001;-91
2024/04/15 05:45:48;;;;;;;8.40;4.25;;;14.00;99.10;;;;;;5348735;26;20011;-91
2024/04/15 05:48:15;;;;;;;5.22;3.28;;;14.00;98.00;;;;;;5321302;26;19997;-92
2024/04/15 05:50:47;;;;;;;7.43;3.92;;;13.90;98.60;;;;;;5337246;26;20037;-93
2024/04/15 05:53:13;;;;;;;4.55;3.97;;;13.80;97.90;;;;;;5340730;26;20005;-91
2024/04/15 05:55:40;;;;;;;6.18;3.97;;;13.80;98.20;;;;;;5306270;26;20068;-91
2024/04/15 05:58:06;;;;;;;8.50;4.65;;;13.80;98.20;;;;;;5319165;26;20002;-93
2024/04/15 06:00:32;;;;;;;5.35;4.20;;;13.80;98.10;;;;;;5351668;26;20048;-92
2024/04/15 06:02:57;;;;;;;8.85;4.75;;;13.80;99.70;;;;;;5347545;26;20485;-91
2024/04/15 06:05:29;;;;;;;9.52;4.70;;;13.70;99.90;;;;;;5341308;26;20007;-93
2024/04/15 06:07:58;;;;;;;4.80;3.88;;;13.70;99.70;;;;;;5308158;26;20005;-92
2024/04/15 06:10:24;;;;;;;8.45;5.43;;;13.70;99.90;;;;;;5350908;26;20001;-93
2024/04/15 06:13:14;;;;;;;5.97;4.90;;;13.80;99.90;;;;;;5322786;26;20044;-92
2024/04/15 06:15:40;;;;;;;8.70;5.05;;;13.90;99.90;;;;;;5351826;26;20008;-91
2024/04/15 06:18:11;;;;;;;5.45;3.95;;;13.90;99.90;;;;;;5323001;26;20004;-91
2024/04/15 06:20:37;;;;;;;6.10;4.28;;;13.90;99.70;;;;;;5319867;26;19997;-90
2024/04/15 06:23:06;;;;;;;5.60;3.00;;;13.90;99.90;;;;;;5331066;26;20375;-89
2024/04/15 06:25:31;;;;;;;5.32;3.60;;;13.80;99.80;;;;;;5344524;26;20008;-90
2024/04/15 06:27:57;;;;;;;6.55;5.05;;;13.80;99.90;;;;;;5347637;26;20581;-89
2024/04/15 06:30:23;;;;;;;5.55;3.90;;;13.80;99.70;;;;;;5321136;26;20008;-88
2024/04/15 06:32:49;;;;;;;8.50;5.53;;;13.80;99.90;;;;;;5362761;26;20012;-89
2024/04/15 06:35:14;;;;;;;10.23;5.05;;;13.80;99.90;;;;;;5353193;26;20001;-89
2024/04/15 06:37:40;;;;;;;6.25;5.20;;;13.90;98.60;;;;;;5340810;26;19997;-89
2024/04/15 06:40:06;;;;;;;8.57;7.13;;;13.90;99.20;;;;;;5337523;26;20015;-89
2024/04/15 06:42:32;;;;;;;7.78;6.82;;;13.90;99.10;;;;;;5345136;26;20474;-90
2024/04/15 06:44:57;;;;;;;10.20;9.32;;;13.90;99.20;;;;;;5343373;26;20012;-90
2024/04/15 06:47:23;;;;;;;13.88;10.48;;;13.80;99.90;;;;;;5304409;26;20008;-91
2024/04/15 06:49:49;;;;;;;74.75;68.63;;;13.70;99.90;;;;;;5333495;26;19998;-90
2024/04/15 06:52:20;;;;;;;22.75;20.52;;;13.70;99.90;;;;;;5341485;26;20045;-93
2024/04/15 06:54:47;;;;;;;10.45;7.32;;;13.70;99.90;;;;;;5349971;26;20009;-93
2024/04/15 06:57:14;;;;;;;11.98;9.90;;;13.60;99.90;;;;;;5317790;26;20112;-90
2024/04/15 06:59:40;;;;;;;18.02;16.23;;;13.60;99.90;;;;;;5319762;26;20013;-92
2024/04/15 07:02:10;;;;;;;14.48;13.32;;;13.60;99.90;;;;;;5312715;26;21707;-90
2024/04/15 07:04:48;;;;;;;11.82;5.47;;;13.70;99.90;;;;;;5351273;26;20335;-91
2024/04/15 07:07:13;;;;;;;9.52;6.13;;;13.80;99.90;;;;;;5334752;26;19997;-92
2024/04/15 07:09:39;;;;;;;10.38;6.75;;;13.80;99.90;;;;;;5300984;26;20004;-91
2024/04/15 07:12:05;;;;;;;9.90;8.23;;;13.90;99.90;;;;;;5350971;26;20000;-90
2024/04/15 07:14:31;;;;;;;8.27;7.00;;;13.90;99.90;;;;;;5351113;26;19993;-92
2024/04/15 07:17:00;;;;;;;11.68;9.88;;;14.00;99.90;;;;;;5349274;26;20012;-90
2024/04/15 07:19:26;;;;;;;9.55;7.18;;;13.90;99.90;;;;;;5339165;26;20001;-94
2024/04/15 07:21:52;;;;;;;8.90;5.72;;;14.00;99.90;;;;;;5326362;26;20485;-91
2024/04/15 07:24:17;;;;;;;8.90;5.57;;;14.10;99.90;;;;;;5311432;26;20068;-90
2024/04/15 07:26:43;;;;;;;8.10;5.50;;;14.00;99.90;;;;;;5344465;26;20005;-89
2024/04/15 07:29:09;;;;;;;6.57;5.57;;;14.10;99.90;;;;;;5314204;26;19997;-90
2024/04/15 07:31:34;;;;;;;11.25;7.22;;;14.10;99.90;;;;;;5342681;26;20034;-91
2024/04/15 07:34:02;;;;;;;9.63;7.05;;;13.80;99.90;;;;;;5342409;26;20009;-90
2024/04/15 07:36:29;;;;;;;9.98;5.97;;;13.80;99.90;;;;;;5343872;26;20703;-91
2024/04/15 07:38:55;;;;;;;9.07;4.93;;;13.80;99.90;;;;;;5341319;26;20324;-91
2024/04/15 07:41:20;;;;;;;10.32;5.55;;;13.70;99.90;;;;;;5342229;26;20008;-90
2024/04/15 07:43:46;;;;;;;12.45;6.50;;;13.60;99.10;;;;;;5349405;26;20309;-90
2024/04/15 07:46:11;;;;;;;12.68;7.82;;;13.60;99.90;;;;;;5345485;26;20011;-89
2024/04/15 07:48:37;;;;;;;14.98;8.60;;;13.70;99.90;;;;;;5346859;26;19997;-93
2024/04/15 07:51:03;;;;;;;12.25;7.85;;;13.60;99.90;;;;;;5338695;26;20517;-91
2024/04/15 07:53:29;;;;;;;10.70;6.45;;;13.70;99.90;;;;;;5349989;26;20001;-90
2024/04/15 07:55:54;;;;;;;13.55;7.00;;;13.80;99.90;;;;;;5348492;26;20015;-91
2024/04/15 07:58:20;;;;;;;7.88;4.32;;;13.80;97.50;;;;;;5341208;26;20331;-90
2024/04/15 08:00:45;;;;;;;10.07;6.65;;;13.90;97.80;;;;;;5348967;26;20070;-90
2024/04/15 08:03:11;;;;;;;10.77;6.13;;;14.00;98.30;;;;;;5350637;26;19997;-91
2024/04/15 08:05:37;;;;;;;11.75;6.40;;;14.00;98.10;;;;;;5347707;26;19997;-90
2024/04/15 08:08:04;;;;;;;8.90;5.88;;;14.10;95.50;;;;;;5351655;26;20004;-90
2024/04/15 08:10:33;;;;;;;7.13;6.43;;;14.20;97.10;;;;;;5318223;26;20005;-91
2024/04/15 08:12:59;;;;;;;13.40;6.13;;;14.30;95.70;;;;;;5351148;26;19993;-91
2024/04/15 08:15:24;;;;;;;11.63;7.45;;;14.20;94.60;;;;;;5339941;26;20015;-91
2024/04/15 08:17:50;;;;;;;11.38;7.45;;;14.20;95.10;;;;;;5345333;26;20009;-89
2024/04/15 08:20:16;;;;;;;11.27;7.22;;;14.30;96.90;;;;;;5351264;26;20020;-90
2024/04/15 08:22:43;;;;;;;10.43;6.07;;;14.30;96.00;;;;;;5347066;26;20019;-89
2024/04/15 08:25:09;;;;;;;9.80;6.05;;;14.40;95.60;;;;;;5340754;26;20012;-89
2024/04/15 08:27:38;;;;;;;9.57;6.60;;;14.20;92.70;;;;;;5343440;26;20009;-90
2024/04/15 08:30:04;;;;;;;11.07;8.50;;;14.20;94.90;;;;;;5351513;26;19993;-90
2024/04/15 08:32:30;;;;;;;10.60;6.53;;;14.30;95.30;;;;;;5349523;26;20015;-89
2024/04/15 08:34:55;;;;;;;14.32;5.90;;;14.50;97.00;;;;;;5350083;26;20021;-91
2024/04/15 08:37:21;;;;;;;9.00;5.80;;;14.60;93.50;;;;;;5337259;26;20009;-89
2024/04/15 08:39:47;;;;;;;12.65;6.65;;;14.80;91.90;;;;;;5348564;26;20000;-90
2024/04/15 08:42:25;;;;;;;8.00;6.65;;;14.90;92.50;;;;;;5348219;26;19993;-91
2024/04/15 08:44:51;;;;;;;8.25;6.28;;;14.90;92.60;;;;;;5345802;26;20028;-91
2024/04/15 08:47:38;;;;;;;8.85;6.22;;;15.00;89.50;;;;;;5338976;26;20780;-91
2024/04/15 08:50:05;;;;;;;10.77;5.53;;;14.70;86.10;;;;;;5345306;26;20471;-91
2024/04/15 08:52:31;;;;;;;8.05;6.63;;;14.80;89.00;;;;;;5336341;26;20012;-90
2024/04/15 08:54:57;;;;;;;7.20;5.70;;;15.10;91.10;;;;;;5363896;26;19998;-89
2024/04/15 08:57:24;;;;;;;7.45;6.07;;;15.30;85.70;;;;;;5364036;26;20003;-91
2024/04/15 08:59:51;;;;;;;9.25;5.60;;;15.20;84.50;;;;;;5362058;26;20003;-91
2024/04/15 09:02:16;;;;;;;9.35;5.70;;;15.10;83.00;;;;;;5360543;26;19997;-89
2024/04/15 09:04:43;;;;;;;8.57;6.45;;;15.00;83.90;;;;;;5347693;26;20013;-88
2024/04/15 09:07:09;;;;;;;10.70;6.47;;;14.90;85.20;;;;;;5313838;26;20009;-89
2024/04/15 09:09:35;;;;;;;6.43;5.70;;;14.90;85.60;;;;;;5350509;26;20053;-88
2024/04/15 09:12:00;;;;;;;9.75;5.70;;;14.90;85.00;;;;;;5338959;26;19993;-89
2024/04/15 09:14:26;;;;;;;8.90;5.53;;;14.90;85.60;;;;;;5337283;26;20443;-89
2024/04/15 09:16:53;;;;;;;9.15;5.70;;;14.80;85.10;;;;;;5345894;26;20012;-89
2024/04/15 09:19:18;;;;;;;8.20;5.43;;;15.00;86.90;;;;;;5346300;26;19997;-89
2024/04/15 09:21:44;;;;;;;5.63;4.90;;;15.10;82.90;;;;;;5341265;26;20482;-90
2024/04/15 09:24:10;;;;;;;6.93;4.43;;;15.20;84.30;;;;;;5345226;26;20005;-90
2024/04/15 09:26:36;;;;;;;10.68;5.85;;;15.10;84.50;;;;;;5344816;26;20028;-89
2024/04/15 09:29:02;;;;;;;9.77;5.65;;;15.10;84.40;;;;;;5343066;26;19997;-90
2024/04/15 09:31:28;;;;;;;17.35;6.82;;;15.40;82.60;;;;;;5318293;26;19993;-90
2024/04/15 09:33:54;;;;;;;6.28;4.68;;;15.70;86.30;;;;;;5346100;26;20070;-90
2024/04/15 09:36:20;;;;;;;15.40;8.20;;;15.80;83.40;;;;;;5346772;26;20024;-90
2024/04/15 09:38:48;;;;;;;42.90;13.13;;;15.80;80.70;;;;;;5342515;26;20004;-88
2024/04/15 09:41:14;;;;;;;57.42;21.10;;;15.70;81.20;;;;;;5325887;26;20001;-90
2024/04/15 09:43:44;;;;;;;15.23;5.75;;;15.70;79.90;;;;;;5340805;26;20432;-90
2024/04/15 09:46:12;;;;;;;15.60;6.65;;;15.60;82.70;;;;;;5343128;26;20008;-89
2024/04/15 09:48:39;;;;;;;9.88;5.43;;;15.70;81.30;;;;;;5325912;26;19997;-89
2024/04/15 09:51:07;;;;;;;30.25;9.85;;;15.80;80.20;;;;;;5315088;26;20001;-89
2024/04/15 09:53:42;;;;;;;19.40;11.40;;;15.90;81.60;;;;;;5311065;26;20000;-90
2024/04/15 09:56:15;;;;;;;10.18;4.28;;;16.20;79.00;;;;;;5349598;26;20402;-90
2024/04/15 09:58:44;;;;;;;28.08;10.50;;;15.90;78.90;;;;;;5344736;26;20016;-89
2024/04/15 10:01:21;;;;;;;49.08;15.02;;;16.10;81.00;;;;;;5348553;26;20012;-89
2024/04/15 10:03:51;;;;;;;20.15;8.40;;;16.20;79.30;;;;;;5338937;26;20537;-90
2024/04/15 10:06:23;;;;;;;13.27;6.13;;;16.20;78.90;;;;;;5329535;26;19998;-91
2024/04/15 10:08:49;;;;;;;12.85;6.22;;;16.10;80.30;;;;;;5345271;26;20072;-89
2024/04/15 10:11:15;;;;;;;31.15;7.50;;;15.90;79.70;;;;;;5319335;26;20052;-90
2024/04/15 10:13:41;;;;;;;75.68;21.10;;;15.80;81.70;;;;;;5351297;26;19997;-89
2024/04/15 10:16:20;;;;;;;92.53;19.85;;;15.80;85.90;;;;;;5315827;26;20012;-89
2024/04/15 10:18:58;;;;;;;15.18;7.57;;;15.80;83.00;;;;;;5341361;26;19996;-89
2024/04/15 10:21:24;;;;;;;136.65;19.77;;;15.90;82.30;;;;;;5340438;26;20062;-89
2024/04/15 10:23:51;;;;;;;77.88;18.85;;;16.00;81.90;;;;;;5341741;26;20124;-89
2024/04/15 10:26:19;;;;;;;207.57;51.22;;;15.90;80.50;;;;;;5342971;26;20060;-89
2024/04/15 10:28:44;;;;;;;70.35;15.98;;;16.20;78.40;;;;;;5351805;26;20673;-89
2024/04/15 10:31:14;;;;;;;66.95;15.02;;;16.20;78.60;;;;;;5318687;26;20009;-91
2024/04/15 10:33:50;;;;;;;27.95;9.00;;;16.10;79.60;;;;;;5347842;26;19993;-90
2024/04/15 10:36:16;;;;;;;9.75;5.35;;;16.20;77.40;;;;;;5331033;26;20022;-90
2024/04/15 10:38:49;;;;;;;44.58;10.60;;;16.60;78.40;;;;;;5345996;26;20004;-90
2024/04/15 10:41:21;;;;;;;8.45;7.65;;;16.80;75.80;;;;;;5336347;26;20021;-90
2024/04/15 10:43:47;;;;;;;8.90;5.78;;;16.70;74.40;;;;;;5317821;26;20010;-89
2024/04/15 10:46:17;;;;;;;14.23;6.68;;;16.70;74.90;;;;;;5345922;26;20040;-89
2024/04/15 10:48:42;;;;;;;8.73;7.90;;;16.60;73.40;;;;;;5340496;26;20025;-90
2024/04/15 10:51:08;;;;;;;9.20;5.30;;;16.60;75.90;;;;;;5345465;26;20012;-91
2024/04/15 10:53:34;;;;;;;10.48;5.85;;;16.80;75.60;;;;;;5346048;26;20000;-92
2024/04/15 10:56:00;;;;;;;8.25;5.55;;;16.80;75.00;;;;;;5346472;26;19997;-90
2024/04/15 10:58:26;;;;;;;8.40;4.82;;;17.10;74.70;;;;;;5348249;26;20624;-90
2024/04/15 11:00:51;;;;;;;7.53;4.07;;;16.90;73.40;;;;;;5345823;26;20310;-89
2024/04/15 11:03:20;;;;;;;14.27;7.65;;;16.70;73.80;;;;;;5340768;26;20015;-92
2024/04/15 11:05:45;;;;;;;5.15;4.32;;;16.50;75.40;;;;;;5346067;26;19993;-90
2024/04/15 11:08:15;;;;;;;9.15;5.05;;;16.10;74.50;;;;;;5331031;26;19997;-91
2024/04/15 11:10:41;;;;;;;7.97;5.13;;;16.10;74.70;;;;;;5347718;26;20040;-90
2024/04/15 11:13:11;;;;;;;8.50;5.88;;;16.10;75.90;;;;;;5331152;26;20009;-90
2024/04/15 11:15:37;;;;;;;6.05;5.55;;;16.00;75.00;;;;;;5341116;26;20016;-89
2024/04/15 11:18:03;;;;;;;9.02;4.13;;;16.20;75.50;;;;;;5349535;26;20001;-89
2024/04/15 11:20:28;;;;;;;8.27;5.18;;;16.30;72.90;;;;;;5355316;26;19997;-93
2024/04/15 11:22:54;;;;;;;6.40;4.40;;;16.10;74.00;;;;;;5367379;26;20011;-91
2024/04/15 11:25:20;;;;;;;8.98;4.72;;;16.20;75.20;;;;;;5358091;26;20450;-91
2024/04/15 11:27:50;;;;;;;6.28;4.85;;;16.10;73.50;;;;;;5342906;26;20001;-90
2024/04/15 11:30:22;;;;;;;6.93;4.95;;;16.30;73.10;;;;;;5349389;26;20009;-91
2024/04/15 11:32:49;;;;;;;8.30;4.25;;;16.30;70.30;;;;;;5350092;26;20000;-89
2024/04/15 11:35:15;;;;;;;9.23;3.53;;;16.70;69.50;;;;;;5348559;26;20501;-89
2024/04/15 11:37:42;;;;;;;7.80;3.58;;;16.80;68.00;;;;;;5341751;26;19997;-90
2024/04/15 11:40:14;;;;;;;7.55;3.80;;;16.80;68.80;;;;;;5278231;26;20045;-89
2024/04/15 11:42:41;;;;;;;10.18;4.95;;;16.80;68.40;;;;;;5319362;26;20005;-90
2024/04/15 11:45:08;;;;;;;10.55;4.55;;;17.00;67.30;;;;;;5324935;26;20016;-90
2024/04/15 11:47:33;;;;;;;6.65;3.78;;;17.10;66.30;;;;;;5322318;26;20011;-90
2024/04/15 11:50:03;;;;;;;9.05;4.43;;;17.20;66.10;;;;;;5316299;26;20009;-90
2024/04/15 11:52:29;;;;;;;6.95;3.85;;;17.20;64.70;;;;;;5321837;26;20008;-90
2024/04/15 11:54:55;;;;;;;9.80;3.35;;;17.20;62.90;;;;;;5327193;26;20029;-89
2024/04/15 11:57:20;;;;;;;3.83;2.90;;;17.70;58.20;;;;;;5323412;26;20005;-91
2024/04/15 11:59:46;;;;;;;3.95;2.83;;;17.60;60.40;;;;;;5329432;26;20009;-93
2024/04/15 12:02:13;;;;;;;5.15;3.00;;;17.90;58.10;;;;;;5340925;26;20015;-91
2024/04/15 12:04:46;;;;;;;6.60;3.38;;;18.30;56.50;;;;;;5339847;26;20045;-90
2024/04/15 12:07:11;;;;;;;16.42;4.40;;;18.60;55.90;;;;;;5339670;26;20012;-90
2024/04/15 12:09:37;;;;;;;7.50;2.83;;;18.30;53.90;;;;;;5319229;26;19993;-90
2024/04/15 12:12:03;;;;;;;6.00;1.67;;;18.80;54.50;;;;;;5321505;26;20377;-91
2024/04/15 12:14:29;;;;;;;6.15;3.28;;;18.80;52.90;;;;;;5337977;26;20037;-91
2024/04/15 12:16:55;;;;;;;4.82;3.75;;;19.00;52.50;;;;;;5340435;26;20001;-90
2024/04/15 12:19:20;;;;;;;8.85;2.70;;;19.00;50.10;;;;;;5336952;26;20001;-91
2024/04/15 12:21:46;;;;;;;7.78;2.42;;;18.90;51.00;;;;;;5350030;26;20012;-90
2024/04/15 12:24:12;;;;;;;4.40;2.75;;;18.30;50.80;;;;;;5310722;26;20005;-91
2024/04/15 12:26:37;;;;;;;6.47;2.78;;;18.30;50.60;;;;;;5311722;26;20478;-90
2024/04/15 12:29:07;;;;;;;9.73;2.22;;;18.50;46.40;;;;;;5337864;26;20008;-90
2024/04/15 12:31:33;;;;;;;5.63;1.80;;;18.80;46.50;;;;;;5341566;26;20008;-91
2024/04/15 12:33:59;;;;;;;6.18;1.83;;;19.00;44.20;;;;;;5347753;26;19996;-89
2024/04/15 12:36:25;;;;;;;5.43;1.80;;;19.50;44.00;;;;;;5336839;26;19998;-92
2024/04/15 12:38:51;;;;;;;4.35;1.70;;;19.50;42.10;;;;;;5316527;26;20004;-92
2024/04/15 12:41:17;;;;;;;3.13;1.58;;;19.50;41.90;;;;;;5347581;26;20331;-90